Lakeland, Missouri
Current Conditions -  °F | °C
As of 9:35 PM on Saturday 22 Nov 2014 (Local Time) from KAIZ Reporting Station
Overcast Overcast  
Wind Chill: 55°   Ceiling: 1600
Heat Index: 55°   Visibility: 10mi
Dew Point: 48°   Wind: 10mph
Humidity: 77%   Direction: 170°S
Pressure: 29.83"   Gusts: 20mph
Location:  38.333°N, 92.5524°W
Report Text: KAIZ 230335Z AUTO 17009G17KT 10SM OVC016 13/09 A2983 RMK AO1
Loading
Personal Weather Stations






























Interactive Weather Map New forecast layout! Learn more

10-Day Weather Forecast

Advertisements
Track Severe Weather on mobile